createdAt,value
2022-08-02T00:00:16.249Z,15.82
2022-08-02T00:02:45.233Z,15.83
2022-08-02T00:05:14.206Z,15.78
2022-08-02T00:07:44.120Z,15.81
2022-08-02T00:10:20.370Z,15.81
2022-08-02T00:12:53.232Z,15.81
2022-08-02T00:15:21.392Z,15.77
2022-08-02T00:17:49.456Z,15.72
2022-08-02T00:20:21.054Z,15.72
2022-08-02T00:22:49.184Z,15.69
2022-08-02T00:25:22.392Z,15.65
2022-08-02T00:31:24.833Z,15.61
2022-08-02T00:34:31.862Z,15.54
2022-08-02T00:37:16.116Z,15.53
2022-08-02T00:43:32.827Z,15.50
2022-08-02T00:46:48.389Z,15.51
2022-08-02T00:49:28.913Z,15.52
2022-08-02T00:52:06.007Z,15.48
2022-08-02T00:54:44.639Z,15.48
2022-08-02T01:01:13.917Z,15.45
2022-08-02T01:04:15.780Z,15.44
2022-08-02T01:07:13.938Z,15.43
2022-08-02T01:09:54.266Z,15.43
2022-08-02T01:12:33.291Z,15.43
2022-08-02T01:15:10.834Z,15.37
2022-08-02T01:17:57.848Z,15.36
2022-08-02T01:21:06.503Z,15.32
2022-08-02T01:24:03.718Z,15.34
2022-08-02T01:26:59.198Z,15.32
2022-08-02T01:29:48.162Z,15.01
2022-08-02T01:32:38.574Z,15.23
2022-08-02T01:35:23.462Z,15.15
2022-08-02T01:38:02.670Z,15.26
2022-08-02T01:40:42.092Z,15.30
2022-08-02T01:46:06.007Z,15.36
2022-08-02T01:49:00.427Z,15.37
2022-08-02T01:52:05.511Z,15.38
2022-08-02T01:54:55.878Z,15.39
2022-08-02T01:57:30.022Z,15.39
2022-08-02T02:00:11.211Z,15.37
2022-08-02T02:03:08.986Z,15.38
2022-08-02T02:06:04.583Z,15.32
2022-08-02T02:08:37.898Z,15.25
2022-08-02T02:12:06.296Z,15.21
2022-08-02T02:14:04.055Z,15.08
2022-08-02T02:16:34.521Z,15.14
2022-08-02T02:19:05.086Z,15.05
2022-08-02T02:21:35.136Z,15.10
2022-08-02T02:24:05.842Z,15.06
2022-08-02T02:26:37.364Z,15.00
2022-08-02T02:29:12.218Z,14.90
2022-08-02T02:31:43.944Z,14.83
2022-08-02T02:34:17.993Z,14.69
2022-08-02T02:36:52.511Z,14.51
2022-08-02T02:39:27.075Z,14.50
2022-08-02T02:41:58.637Z,14.49
2022-08-02T02:44:34.484Z,14.42
2022-08-02T02:47:04.959Z,14.39
2022-08-02T02:49:36.676Z,14.45
2022-08-02T02:52:06.793Z,14.39
2022-08-02T02:54:36.668Z,14.32
2022-08-02T02:57:06.615Z,14.30
2022-08-02T02:59:49.596Z,14.25
2022-08-02T03:02:19.083Z,14.31
2022-08-02T03:04:56.121Z,14.29
2022-08-02T03:07:27.848Z,14.16
2022-08-02T03:09:58.966Z,14.07
2022-08-02T03:12:31.920Z,14.02
2022-08-02T03:15:06.510Z,14.01
2022-08-02T03:17:44.823Z,14.02
2022-08-02T03:20:22.735Z,14.06
2022-08-02T03:22:51.122Z,14.12
2022-08-02T03:25:19.549Z,14.13
2022-08-02T03:27:48.246Z,14.06
2022-08-02T03:30:27.110Z,14.11
2022-08-02T03:32:59.721Z,14.02
2022-08-02T03:35:29.453Z,14.01
2022-08-02T03:37:59.013Z,14.03
2022-08-02T03:40:28.266Z,14.13
2022-08-02T03:42:58.653Z,14.19
2022-08-02T03:45:27.340Z,14.22
2022-08-02T03:47:59.169Z,14.21
2022-08-02T03:50:29.241Z,14.19
2022-08-02T03:52:57.962Z,14.28
2022-08-02T03:55:28.326Z,14.24
2022-08-02T03:57:56.622Z,14.25
2022-08-02T04:00:25.056Z,14.27
2022-08-02T04:02:55.370Z,14.28
2022-08-02T04:05:23.486Z,14.29
2022-08-02T04:08:37.209Z,14.36
2022-08-02T04:11:18.325Z,14.26
2022-08-02T04:13:46.557Z,14.43
2022-08-02T04:16:24.599Z,14.53
2022-08-02T04:18:57.108Z,14.60
2022-08-02T04:21:50.110Z,14.62
2022-08-02T04:24:24.428Z,14.59
2022-08-02T04:26:57.970Z,14.58
2022-08-02T04:29:41.732Z,14.59
2022-08-02T04:32:13.991Z,14.54
2022-08-02T04:34:47.438Z,14.55
2022-08-02T04:37:25.119Z,14.50
2022-08-02T04:39:56.812Z,14.55
2022-08-02T04:42:26.480Z,14.55
2022-08-02T04:44:58.032Z,14.51
2022-08-02T04:48:03.656Z,14.46
2022-08-02T04:50:16.601Z,14.42
2022-08-02T04:55:59.499Z,14.35
2022-08-02T04:58:46.040Z,14.28
2022-08-02T05:01:19.301Z,14.36
2022-08-02T05:03:47.291Z,14.24
2022-08-02T05:06:19.307Z,14.45
2022-08-02T05:08:53.187Z,14.67
2022-08-02T05:11:34.429Z,14.66
2022-08-02T05:14:08.229Z,14.78
2022-08-02T05:16:36.220Z,15.08
2022-08-02T05:19:04.390Z,16.11
2022-08-02T05:21:34.855Z,17.09
2022-08-02T05:24:02.866Z,17.37
2022-08-02T05:26:30.889Z,17.50
2022-08-02T05:29:06.928Z,17.34
2022-08-02T05:31:36.266Z,17.57
2022-08-02T05:34:11.714Z,18.76
2022-08-02T05:36:43.740Z,19.53
2022-08-02T05:39:18.705Z,19.88
2022-08-02T05:41:47.192Z,19.80
2022-08-02T05:44:15.304Z,19.21
2022-08-02T05:46:46.793Z,19.44
2022-08-02T05:49:16.228Z,19.60
2022-08-02T05:52:18.375Z,19.55
2022-08-02T05:54:50.591Z,19.42
2022-08-02T05:57:31.807Z,19.45
2022-08-02T06:00:06.569Z,20.39
2022-08-02T06:03:09.445Z,21.44
2022-08-02T06:05:42.145Z,22.26
2022-08-02T06:08:10.770Z,22.73
2022-08-02T06:10:44.720Z,22.83
2022-08-02T06:13:14.376Z,23.28
2022-08-02T06:15:52.940Z,23.34
2022-08-02T06:18:27.612Z,23.29
2022-08-02T06:22:35.356Z,23.27
2022-08-02T06:23:59.387Z,23.79
2022-08-02T06:26:28.508Z,23.32
2022-08-02T06:28:59.962Z,22.67
2022-08-02T06:31:28.090Z,21.99
2022-08-02T06:34:08.265Z,21.92
2022-08-02T06:36:50.383Z,22.15
2022-08-02T06:39:23.469Z,22.18
2022-08-02T06:41:53.142Z,22.12
2022-08-02T06:45:02.879Z,21.58
2022-08-02T06:47:34.870Z,20.96
2022-08-02T06:50:04.169Z,20.43
2022-08-02T06:52:38.379Z,20.25
2022-08-02T06:55:10.570Z,20.29
2022-08-02T07:00:41.573Z,20.22
2022-08-02T07:03:11.929Z,20.09
2022-08-02T07:09:24.671Z,20.38
2022-08-02T07:15:35.667Z,20.04
2022-08-02T07:18:17.972Z,19.99
2022-08-02T07:21:05.032Z,19.89
2022-08-02T07:23:58.074Z,19.84
2022-08-02T07:26:55.247Z,19.87
2022-08-02T07:32:48.239Z,20.03
2022-08-02T07:35:32.354Z,20.11
2022-08-02T07:38:02.986Z,20.18
2022-08-02T07:40:33.057Z,20.16
2022-08-02T07:43:05.660Z,20.03
2022-08-02T07:45:36.055Z,20.03
2022-08-02T07:48:05.174Z,20.05
2022-08-02T07:50:35.548Z,20.16
2022-08-02T07:53:03.822Z,20.17
2022-08-02T07:55:39.752Z,20.15
2022-08-02T07:58:13.079Z,20.20
2022-08-02T08:00:43.752Z,20.23
2022-08-02T08:03:12.229Z,20.29
2022-08-02T08:11:34.345Z,20.56
2022-08-02T08:14:07.816Z,20.56
2022-08-02T08:16:35.990Z,20.63
2022-08-02T08:19:05.465Z,20.82
2022-08-02T08:21:35.482Z,20.89
2022-08-02T08:24:04.834Z,20.86
2022-08-02T08:26:33.117Z,20.96
2022-08-02T08:29:03.257Z,21.05
2022-08-02T08:31:32.764Z,21.15
2022-08-02T08:34:00.799Z,21.20
2022-08-02T08:36:29.435Z,21.25
2022-08-02T08:39:00.359Z,21.17
2022-08-02T08:41:32.835Z,21.24
2022-08-02T08:44:01.011Z,21.43
2022-08-02T08:46:30.724Z,21.66
2022-08-02T08:49:31.771Z,21.87
2022-08-02T08:52:05.567Z,22.02
2022-08-02T08:54:38.904Z,22.11
2022-08-02T08:57:07.909Z,22.09
2022-08-02T08:59:42.011Z,22.25
2022-08-02T09:02:19.727Z,22.36
2022-08-02T09:04:54.851Z,22.37
2022-08-02T09:08:05.774Z,22.37
2022-08-02T09:10:44.420Z,22.35
2022-08-02T09:13:31.355Z,22.24
2022-08-02T09:16:13.071Z,22.47
2022-08-02T09:18:45.529Z,22.55
2022-08-02T09:21:16.899Z,22.61
2022-08-02T09:23:47.162Z,22.64
2022-08-02T09:26:23.953Z,22.73
2022-08-02T09:28:53.777Z,22.70
2022-08-02T09:31:26.557Z,22.68
2022-08-02T09:33:59.575Z,22.71
2022-08-02T09:36:38.184Z,22.65
2022-08-02T09:39:15.305Z,22.73
2022-08-02T09:41:45.438Z,22.82
2022-08-02T09:44:24.563Z,22.95
2022-08-02T09:46:54.682Z,23.10
2022-08-02T09:49:26.052Z,23.13
2022-08-02T09:51:57.809Z,23.27
2022-08-02T09:54:28.799Z,23.38
2022-08-02T09:57:00.017Z,23.51
2022-08-02T09:59:36.969Z,23.68
2022-08-02T10:02:17.387Z,23.73
2022-08-02T10:04:52.929Z,23.71
2022-08-02T10:07:26.044Z,23.74
2022-08-02T10:09:56.207Z,23.74
2022-08-02T10:12:24.428Z,23.90
2022-08-02T10:14:53.638Z,23.97
2022-08-02T10:17:25.670Z,24.13
2022-08-02T10:20:02.122Z,24.21
2022-08-02T10:22:35.497Z,24.20
2022-08-02T10:25:05.630Z,24.29
2022-08-02T10:28:02.581Z,24.32
2022-08-02T10:30:27.044Z,24.37
2022-08-02T10:33:00.260Z,24.35
2022-08-02T10:35:31.122Z,24.40
2022-08-02T10:38:06.609Z,24.37
2022-08-02T10:40:52.537Z,24.43
2022-08-02T10:43:48.868Z,24.62
2022-08-02T10:46:44.548Z,24.83
2022-08-02T10:52:17.365Z,24.96
2022-08-02T10:54:56.307Z,24.95
2022-08-02T10:57:26.405Z,24.95
2022-08-02T10:59:57.599Z,25.00
2022-08-02T11:02:37.435Z,25.09
2022-08-02T11:05:18.102Z,25.32
2022-08-02T11:07:54.375Z,25.50
2022-08-02T11:10:50.520Z,25.43
2022-08-02T11:13:20.523Z,25.51
2022-08-02T11:16:10.757Z,25.62
2022-08-02T11:19:20.413Z,25.83
2022-08-02T11:22:04.534Z,25.94
2022-08-02T11:24:34.193Z,25.88
2022-08-02T11:27:07.495Z,26.01
2022-08-02T11:30:01.025Z,26.06
2022-08-02T11:32:36.516Z,26.13
2022-08-02T11:35:07.003Z,26.15
2022-08-02T11:37:43.066Z,26.17
2022-08-02T11:40:19.516Z,26.21
2022-08-02T11:42:50.825Z,26.38
2022-08-02T11:45:29.253Z,26.50
2022-08-02T11:48:10.244Z,26.53
2022-08-02T11:50:40.255Z,26.53
2022-08-02T11:53:17.823Z,26.65
2022-08-02T11:55:45.703Z,26.61
2022-08-02T11:58:21.033Z,26.54
2022-08-02T12:00:49.468Z,26.44
2022-08-02T12:06:16.409Z,26.90
2022-08-02T12:08:54.284Z,26.97
2022-08-02T12:11:25.777Z,27.19
2022-08-02T12:14:11.247Z,27.46
2022-08-02T12:16:58.678Z,27.57
2022-08-02T12:19:27.911Z,27.58
2022-08-02T12:22:24.420Z,27.57
2022-08-02T12:24:56.945Z,27.43
2022-08-02T12:27:33.450Z,27.38
2022-08-02T12:30:10.871Z,27.33
2022-08-02T12:32:39.598Z,27.38
2022-08-02T12:35:13.230Z,27.44
2022-08-02T12:37:42.107Z,27.59
2022-08-02T12:40:31.855Z,27.71
2022-08-02T12:43:01.975Z,27.69
2022-08-02T12:45:39.281Z,27.69
2022-08-02T12:48:09.934Z,27.72
2022-08-02T12:50:45.668Z,27.89
2022-08-02T12:53:15.933Z,28.09
2022-08-02T12:55:59.841Z,28.16
2022-08-02T12:58:49.429Z,28.14
2022-08-02T13:01:23.792Z,28.15
2022-08-02T13:04:11.901Z,28.30
2022-08-02T13:06:45.073Z,28.27
2022-08-02T13:09:17.886Z,28.25
2022-08-02T13:11:48.325Z,28.14
2022-08-02T13:14:21.713Z,28.02
2022-08-02T13:16:51.530Z,27.81
2022-08-02T13:19:19.689Z,27.88
2022-08-02T13:22:02.811Z,27.87
2022-08-02T13:24:40.525Z,27.95
2022-08-02T13:27:24.972Z,27.99
2022-08-02T13:29:54.662Z,27.91
2022-08-02T13:32:39.249Z,27.80
2022-08-02T13:35:09.748Z,27.74
2022-08-02T13:37:47.774Z,27.91
2022-08-02T13:40:23.179Z,28.04
2022-08-02T13:42:56.115Z,28.09
2022-08-02T13:45:24.194Z,28.16
2022-08-02T13:48:05.010Z,28.03
2022-08-02T13:50:41.231Z,28.19
2022-08-02T13:53:09.112Z,28.35
2022-08-02T13:55:43.396Z,28.37
2022-08-02T13:58:11.486Z,28.43
2022-08-02T14:00:44.121Z,28.55
2022-08-02T14:03:13.773Z,28.53
2022-08-02T14:05:48.327Z,28.60
2022-08-02T14:08:26.752Z,28.56
2022-08-02T14:10:57.405Z,28.65
2022-08-02T14:13:28.109Z,28.68
2022-08-02T14:16:07.192Z,28.57
2022-08-02T14:18:44.875Z,28.42
2022-08-02T14:21:14.907Z,28.37
2022-08-02T14:23:51.975Z,28.32
2022-08-02T14:26:27.027Z,28.32
2022-08-02T14:28:58.648Z,28.31
2022-08-02T14:31:28.633Z,28.30
2022-08-02T14:34:21.233Z,28.28
2022-08-02T14:36:53.542Z,28.50
2022-08-02T14:39:43.306Z,28.65
2022-08-02T14:42:22.500Z,28.66
2022-08-02T14:44:50.556Z,28.65
2022-08-02T14:47:18.401Z,28.37
2022-08-02T14:50:05.268Z,28.23
2022-08-02T14:52:42.588Z,28.38
2022-08-02T14:55:12.975Z,28.64
2022-08-02T14:57:44.813Z,28.76
2022-08-02T15:00:17.818Z,28.68
2022-08-02T15:02:48.518Z,28.28
2022-08-02T15:05:17.908Z,28.44
2022-08-02T15:07:49.757Z,28.49
2022-08-02T15:10:18.791Z,28.61
2022-08-02T15:12:50.061Z,28.68
2022-08-02T15:15:26.033Z,28.71
2022-08-02T15:17:57.054Z,28.63
2022-08-02T15:20:26.461Z,28.36
2022-08-02T15:22:57.341Z,28.39
2022-08-02T15:25:27.482Z,28.40
2022-08-02T15:27:56.502Z,28.39
2022-08-02T15:30:27.056Z,28.31
2022-08-02T15:32:55.657Z,28.27
2022-08-02T15:35:26.929Z,28.27
2022-08-02T15:38:17.839Z,28.25
2022-08-02T15:40:45.777Z,28.18
2022-08-02T15:43:16.572Z,28.14
2022-08-02T15:45:47.414Z,28.12
2022-08-02T15:48:16.366Z,28.11
2022-08-02T15:50:48.378Z,28.06
2022-08-02T15:53:18.442Z,28.18
2022-08-02T15:56:05.449Z,28.25
2022-08-02T15:58:36.181Z,28.34
2022-08-02T16:01:12.679Z,28.35
2022-08-02T16:03:50.067Z,28.24
2022-08-02T16:06:25.229Z,28.27
2022-08-02T16:08:55.925Z,28.20
2022-08-02T16:11:26.607Z,28.15
2022-08-02T16:13:54.901Z,28.12
2022-08-02T16:16:23.984Z,28.11
2022-08-02T16:18:54.311Z,28.13
2022-08-02T16:21:24.812Z,28.10
2022-08-02T16:23:58.918Z,28.05
2022-08-02T16:26:34.865Z,27.99
2022-08-02T16:29:03.933Z,28.00
2022-08-02T16:31:31.850Z,28.02
2022-08-02T16:33:59.797Z,27.96
2022-08-02T16:36:35.034Z,27.84
2022-08-02T16:39:05.091Z,27.64
2022-08-02T16:41:51.226Z,27.56
2022-08-02T16:44:29.237Z,27.47
2022-08-02T16:47:00.933Z,27.30
2022-08-02T16:50:07.483Z,27.38
2022-08-02T16:52:19.705Z,27.40
2022-08-02T16:54:50.541Z,27.38
2022-08-02T16:57:20.050Z,27.32
2022-08-02T16:59:57.256Z,27.26
2022-08-02T17:02:26.360Z,27.24
2022-08-02T17:05:02.723Z,27.24
2022-08-02T17:08:08.014Z,27.22
2022-08-02T17:10:20.829Z,27.22
2022-08-02T17:12:51.224Z,27.23
2022-08-02T17:16:01.190Z,27.25
2022-08-02T17:18:26.418Z,27.21
2022-08-02T17:20:56.662Z,27.17
2022-08-02T17:24:03.963Z,27.14
2022-08-02T17:26:14.336Z,27.03
2022-08-02T17:29:16.403Z,27.02
2022-08-02T17:31:43.722Z,26.98
2022-08-02T17:34:18.246Z,26.96
2022-08-02T17:36:56.961Z,26.89
2022-08-02T17:39:33.575Z,26.84
2022-08-02T17:42:04.593Z,26.79
2022-08-02T17:44:49.316Z,26.73
2022-08-02T17:47:30.894Z,26.69
2022-08-02T17:50:04.981Z,26.68
2022-08-02T17:52:51.516Z,26.64
2022-08-02T17:55:22.508Z,26.58
2022-08-02T17:57:58.262Z,26.51
2022-08-02T18:00:36.603Z,26.46
2022-08-02T18:03:07.892Z,26.41
2022-08-02T18:05:40.449Z,26.38
2022-08-02T18:08:26.749Z,26.30
2022-08-02T18:10:56.789Z,26.24
2022-08-02T18:13:32.798Z,26.20
2022-08-02T18:16:01.209Z,26.18
2022-08-02T18:18:29.649Z,26.20
2022-08-02T18:21:16.183Z,26.25
2022-08-02T18:23:58.847Z,26.28
2022-08-02T18:26:33.573Z,26.31
2022-08-02T18:29:03.999Z,26.30
2022-08-02T18:31:39.364Z,26.32
2022-08-02T18:34:13.878Z,26.31
2022-08-02T18:36:47.383Z,26.27
2022-08-02T18:39:18.661Z,26.24
2022-08-02T18:41:50.354Z,26.21
2022-08-02T18:44:21.347Z,26.18
2022-08-02T18:46:53.737Z,26.15
2022-08-02T18:49:23.860Z,26.12
2022-08-02T18:51:57.899Z,26.11
2022-08-02T18:54:41.114Z,26.09
2022-08-02T18:58:16.919Z,26.07
2022-08-02T19:00:09.590Z,26.04
2022-08-02T19:02:41.445Z,26.01
2022-08-02T19:05:11.695Z,26.03
2022-08-02T19:07:49.873Z,26.02
2022-08-02T19:10:27.279Z,26.01
2022-08-02T19:12:56.647Z,25.96
2022-08-02T19:18:09.330Z,25.84
2022-08-02T19:20:40.196Z,25.77
2022-08-02T19:23:19.012Z,25.70
2022-08-02T19:26:00.361Z,25.59
2022-08-02T19:28:44.478Z,25.54
2022-08-02T19:31:24.298Z,25.34
2022-08-02T19:34:07.352Z,25.37
2022-08-02T19:36:36.829Z,25.27
2022-08-02T19:39:11.340Z,25.14
2022-08-02T19:41:46.977Z,25.06
2022-08-02T19:44:23.516Z,24.99
2022-08-02T19:46:59.186Z,24.90
2022-08-02T19:49:39.396Z,24.81
2022-08-02T19:52:21.268Z,24.71
2022-08-02T19:54:55.667Z,24.68
2022-08-02T19:57:42.072Z,24.65
2022-08-02T20:00:21.467Z,24.57
2022-08-02T20:03:03.596Z,24.49
2022-08-02T20:05:39.578Z,24.46
2022-08-02T20:08:08.003Z,24.43
2022-08-02T20:10:36.865Z,24.44
2022-08-02T20:13:04.823Z,24.46
2022-08-02T20:15:56.198Z,24.50
2022-08-02T20:21:34.196Z,24.50
2022-08-02T20:24:01.928Z,24.49
2022-08-02T20:26:30.467Z,24.47
2022-08-02T20:29:02.540Z,24.44
2022-08-02T20:31:40.981Z,24.46
2022-08-02T20:34:27.474Z,24.44
2022-08-02T20:36:55.831Z,24.35
2022-08-02T20:39:43.043Z,24.40
2022-08-02T20:42:23.842Z,24.42
2022-08-02T20:44:55.866Z,24.43
2022-08-02T20:47:39.312Z,24.45
2022-08-02T20:50:31.314Z,24.45
2022-08-02T20:53:01.916Z,24.48
2022-08-02T20:55:32.036Z,24.45
2022-08-02T21:00:58.557Z,24.49
2022-08-02T21:06:14.928Z,24.51
2022-08-02T21:08:46.278Z,24.51
2022-08-02T21:11:14.967Z,24.54
2022-08-02T21:13:46.558Z,24.54
2022-08-02T21:16:18.349Z,24.53
2022-08-02T21:18:55.834Z,24.51
2022-08-02T21:21:31.314Z,24.50
2022-08-02T21:24:00.136Z,24.47
2022-08-02T21:26:31.162Z,24.43
2022-08-02T21:31:49.252Z,24.41
2022-08-02T21:34:26.624Z,24.42
2022-08-02T21:36:55.111Z,24.31
2022-08-02T21:39:23.737Z,24.47
2022-08-02T21:41:51.593Z,24.46
2022-08-02T21:44:21.705Z,24.43
2022-08-02T21:46:53.972Z,24.47
2022-08-02T21:50:09.465Z,24.43
2022-08-02T21:52:16.361Z,24.35
2022-08-02T21:54:48.497Z,24.27
2022-08-02T21:57:18.532Z,24.20
2022-08-02T21:59:52.847Z,24.13
2022-08-02T22:02:30.644Z,24.06
2022-08-02T22:05:02.685Z,23.83
2022-08-02T22:07:38.216Z,23.90
2022-08-02T22:10:20.265Z,23.84
2022-08-02T22:12:48.536Z,23.78
2022-08-02T22:15:25.802Z,23.72
2022-08-02T22:18:03.917Z,23.67
2022-08-02T22:20:33.338Z,23.66
2022-08-02T22:23:12.807Z,23.64
2022-08-02T22:25:51.048Z,23.61
2022-08-02T22:28:51.730Z,23.56
2022-08-02T22:31:40.955Z,23.49
2022-08-02T22:34:11.643Z,23.39
2022-08-02T22:36:56.354Z,23.29
2022-08-02T22:39:24.328Z,23.22
2022-08-02T22:42:05.302Z,23.18
2022-08-02T22:44:37.646Z,23.15
2022-08-02T22:47:18.951Z,23.20
2022-08-02T22:49:54.376Z,23.25
2022-08-02T22:52:38.888Z,23.26
2022-08-02T22:55:07.800Z,23.23
2022-08-02T22:57:57.017Z,23.28
2022-08-02T22:59:05.337Z,24.51
2022-08-02T22:59:07.764Z,24.48
2022-08-02T23:00:25.533Z,23.20
2022-08-02T23:02:53.577Z,23.15
2022-08-02T23:05:23.159Z,23.08
2022-08-02T23:07:54.592Z,22.99
2022-08-02T23:10:23.048Z,22.94
2022-08-02T23:12:56.404Z,22.88
2022-08-02T23:15:25.057Z,22.77
2022-08-02T23:18:10.963Z,22.74
2022-08-02T23:20:41.099Z,22.74
2022-08-02T23:23:13.018Z,22.69
2022-08-02T23:25:40.937Z,22.63
2022-08-02T23:28:24.973Z,22.60
2022-08-02T23:30:54.934Z,22.55
2022-08-02T23:33:35.069Z,22.51
2022-08-02T23:36:25.656Z,22.46
2022-08-02T23:39:00.726Z,22.45
2022-08-02T23:41:28.713Z,22.43
2022-08-02T23:44:15.088Z,22.46
2022-08-02T23:46:44.512Z,22.45
2022-08-02T23:49:13.014Z,22.44
2022-08-02T23:51:40.975Z,22.40
2022-08-02T23:54:10.747Z,22.34
2022-08-02T23:56:39.306Z,22.30
2022-08-02T23:59:16.835Z,22.23
